Time;durP1;ratioP1;P1;durP2;ratioP2;P2;SDS_P1;SDS_P2;PMS_P1;PMS_P2;Temp;Humidity;BMP_temperature;BMP_pressure;BME280_temperature;BME280_humidity;BME280_pressure;Samples;Min_cycle;Max_cycle;Signal;HPM_P1;HPM_P2
2022/05/21 00:00:03;;;;;;;9.27;7.90;;;14.80;99.90;;;;;;4195487;28;20172;-68
2022/05/21 00:02:06;;;;;;;11.13;7.07;;;14.70;99.90;;;;;;4195486;28;20615;-68
2022/05/21 00:04:07;;;;;;;9.80;6.77;;;14.60;99.90;;;;;;4195468;28;20651;-68
2022/05/21 00:06:07;;;;;;;8.97;6.40;;;14.60;99.90;;;;;;4194914;28;20178;-68
2022/05/21 00:08:09;;;;;;;7.43;6.40;;;14.60;99.90;;;;;;4195407;28;20207;-68
2022/05/21 00:10:12;;;;;;;8.63;7.17;;;14.50;99.90;;;;;;4195039;28;20198;-68
2022/05/21 00:12:13;;;;;;;9.00;7.33;;;14.50;99.90;;;;;;4195480;28;20196;-68
2022/05/21 00:14:14;;;;;;;1999.90;999.90;;;14.50;99.90;;;;;;4195243;28;20202;-68
2022/05/21 00:16:15;;;;;;;8.57;6.33;;;14.50;99.90;;;;;;4194541;28;20190;-68
2022/05/21 00:18:16;;;;;;;170.17;20.07;;;14.50;99.90;;;;;;4195347;28;20587;-68
2022/05/21 00:22:36;;;;;;;8.47;5.80;;;14.50;99.90;;;;;;4195634;28;20202;-68
2022/05/21 00:24:37;;;;;;;7.43;6.30;;;14.50;99.90;;;;;;4195221;28;20184;-68
2022/05/21 00:26:37;;;;;;;9.37;5.70;;;14.50;99.90;;;;;;4194608;28;20681;-68
2022/05/21 00:28:40;;;;;;;7.07;5.03;;;14.40;99.90;;;;;;4195464;28;20176;-68
2022/05/21 00:30:40;;;;;;;7.10;6.23;;;14.40;99.90;;;;;;4195285;28;20654;-67
2022/05/21 00:32:41;;;;;;;11.13;6.87;;;14.50;99.90;;;;;;4195222;28;20195;-68
2022/05/21 00:34:42;;;;;;;8.27;5.07;;;14.40;99.90;;;;;;4194576;28;20269;-68
2022/05/21 00:36:42;;;;;;;8.87;6.10;;;14.40;99.90;;;;;;4194453;28;20179;-68
2022/05/21 00:38:44;;;;;;;10.70;6.17;;;14.40;99.90;;;;;;4195211;28;20172;-68
2022/05/21 00:40:45;;;;;;;8.70;6.50;;;14.40;99.90;;;;;;4195177;28;20179;-68
2022/05/21 00:42:46;;;;;;;8.70;6.17;;;14.40;99.90;;;;;;4195049;28;20194;-68
2022/05/21 00:44:46;;;;;;;7.90;5.53;;;14.30;99.90;;;;;;4195177;28;20199;-68
2022/05/21 00:46:48;;;;;;;6.70;5.63;;;14.40;99.90;;;;;;4194526;28;20228;-68
2022/05/21 00:49:05;;;;;;;7.97;6.40;;;14.30;99.90;;;;;;4195182;28;20211;-68
2022/05/21 00:51:10;;;;;;;7.30;5.33;;;14.30;99.90;;;;;;4195175;28;20162;-68
2022/05/21 00:53:11;;;;;;;8.07;6.43;;;14.40;99.90;;;;;;4195045;28;20163;-68
2022/05/21 00:55:22;;;;;;;6.30;5.20;;;14.20;99.90;;;;;;4194643;28;20195;-67
2022/05/21 00:57:28;;;;;;;6.73;5.40;;;14.20;99.90;;;;;;4195039;28;20222;-68
2022/05/21 00:59:48;;;;;;;10.23;6.90;;;14.30;99.90;;;;;;4195035;28;20163;-67
2022/05/21 01:01:53;;;;;;;6.67;5.37;;;14.30;99.90;;;;;;4195053;28;20662;-67
2022/05/21 01:03:53;;;;;;;8.87;6.30;;;14.40;99.90;;;;;;4194753;28;20220;-67
2022/05/21 01:05:54;;;;;;;6.03;5.37;;;14.30;99.90;;;;;;4194349;28;20210;-67
2022/05/21 01:07:58;;;;;;;6.47;5.60;;;14.20;99.90;;;;;;4198356;28;20190;-67
2022/05/21 01:09:59;;;;;;;6.53;5.43;;;14.10;99.90;;;;;;4197983;28;20262;-67
2022/05/21 01:12:05;;;;;;;7.87;6.20;;;14.20;99.90;;;;;;4198449;28;20297;-67
2022/05/21 01:14:09;;;;;;;8.13;6.07;;;14.20;99.90;;;;;;4198322;28;20240;-67
2022/05/21 01:16:10;;;;;;;8.70;6.53;;;14.20;99.90;;;;;;4197452;28;20206;-67
2022/05/21 01:18:11;;;;;;;8.43;5.93;;;14.10;99.90;;;;;;4198251;28;20171;-68
2022/05/21 01:20:23;;;;;;;8.60;5.40;;;14.20;99.90;;;;;;4198134;28;20195;-67
2022/05/21 01:22:26;;;;;;;7.53;5.77;;;14.20;99.90;;;;;;4198457;28;20199;-67
2022/05/21 01:24:27;;;;;;;8.97;5.23;;;14.20;99.90;;;;;;4198489;28;20647;-68
2022/05/21 01:26:28;;;;;;;8.00;5.90;;;14.10;99.90;;;;;;4196143;28;20179;-67
2022/05/21 01:28:32;;;;;;;7.93;5.70;;;14.10;99.90;;;;;;4198491;28;20179;-67
2022/05/21 01:30:43;;;;;;;7.03;4.67;;;14.10;99.90;;;;;;4198236;28;20184;-67
2022/05/21 01:32:48;;;;;;;5.60;4.93;;;14.10;99.90;;;;;;4198034;28;20705;-67
2022/05/21 01:34:49;;;;;;;5.73;3.90;;;14.20;99.90;;;;;;4198123;28;20195;-67
2022/05/21 01:36:50;;;;;;;5.50;3.20;;;14.10;99.90;;;;;;4197417;28;20260;-67
2022/05/21 01:38:50;;;;;;;4.77;3.20;;;14.00;99.90;;;;;;4197964;28;20966;-67
2022/05/21 01:40:51;;;;;;;6.43;3.37;;;13.90;99.90;;;;;;4197823;28;20267;-67
2022/05/21 01:45:10;;;;;;;5.63;3.57;;;13.90;99.90;;;;;;4198250;28;20186;-66
2022/05/21 01:47:14;;;;;;;4.37;3.47;;;13.80;99.90;;;;;;4197711;28;20208;-67
2022/05/21 01:49:14;;;;;;;8.20;4.30;;;13.80;99.90;;;;;;4198170;28;20270;-67
2022/05/21 01:51:15;;;;;;;3.63;3.20;;;13.80;99.90;;;;;;4197837;28;20183;-67
2022/05/21 01:53:16;;;;;;;7.70;3.40;;;13.70;99.90;;;;;;4197848;28;20191;-66
2022/05/21 01:55:17;;;;;;;5.60;3.30;;;13.70;99.90;;;;;;4197552;28;20200;-68
2022/05/21 01:57:18;;;;;;;4.83;3.43;;;13.50;99.90;;;;;;4197582;28;20175;-68
2022/05/21 01:59:18;;;;;;;4.13;3.63;;;13.40;99.90;;;;;;4197844;28;20175;-68
2022/05/21 02:01:20;;;;;;;5.00;3.10;;;13.40;99.90;;;;;;4197655;28;20195;-68
2022/05/21 02:03:21;;;;;;;7.93;5.27;;;13.30;99.90;;;;;;4191246;28;20191;-67
2022/05/21 02:05:22;;;;;;;4.33;3.07;;;13.30;99.90;;;;;;4196686;28;20599;-68
2022/05/21 02:07:23;;;;;;;4.83;3.70;;;13.20;99.90;;;;;;4197770;28;20179;-68
2022/05/21 02:09:24;;;;;;;5.13;3.30;;;13.10;99.90;;;;;;4197481;28;20248;-68
2022/05/21 02:11:24;;;;;;;54.30;6.73;;;13.10;99.90;;;;;;4197377;28;20206;-68
2022/05/21 02:13:27;;;;;;;77.07;26.37;;;13.00;99.90;;;;;;4197427;28;20171;-68
2022/05/21 02:15:29;;;;;;;581.57;68.50;;;13.00;99.90;;;;;;4196702;28;20203;-68
2022/05/21 02:17:29;;;;;;;145.53;26.73;;;13.00;99.90;;;;;;4197210;28;20539;-68
2022/05/21 02:19:30;;;;;;;4.70;3.33;;;12.90;99.90;;;;;;4197394;28;20827;-68
2022/05/21 02:21:32;;;;;;;4.33;3.23;;;12.90;99.90;;;;;;4197429;28;20616;-68
2022/05/21 02:23:33;;;;;;;4.00;3.50;;;12.80;99.90;;;;;;4197582;28;20651;-68
2022/05/21 02:25:35;;;;;;;5.47;3.70;;;12.70;99.90;;;;;;4196754;28;20203;-68
2022/05/21 02:27:35;;;;;;;5.60;4.07;;;12.60;99.90;;;;;;4197431;28;20270;-68
2022/05/21 02:29:37;;;;;;;3.97;3.30;;;12.60;99.90;;;;;;4197519;28;20194;-68
2022/05/21 02:31:38;;;;;;;5.70;3.90;;;12.60;99.90;;;;;;4196175;28;20699;-68
2022/05/21 02:33:40;;;;;;;4.03;3.40;;;12.50;99.90;;;;;;4196732;28;20856;-68
2022/05/21 02:35:40;;;;;;;4.90;4.10;;;12.50;99.90;;;;;;4196457;28;20268;-68
2022/05/21 02:40:01;;;;;;;5.83;4.20;;;12.40;99.90;;;;;;4197129;28;20197;-68
2022/05/21 02:42:02;;;;;;;5.90;4.13;;;12.30;99.90;;;;;;4197035;28;20221;-68
2022/05/21 02:44:02;;;;;;;4.87;4.30;;;12.20;99.90;;;;;;4195751;28;20187;-68
2022/05/21 02:46:03;;;;;;;5.90;4.47;;;12.10;99.90;;;;;;4196324;28;20386;-68
2022/05/21 02:48:04;;;;;;;6.57;4.33;;;12.10;99.90;;;;;;4196916;28;20180;-68
2022/05/21 02:50:06;;;;;;;5.77;4.67;;;12.00;99.90;;;;;;4197036;28;20172;-68
2022/05/21 02:52:06;;;;;;;5.90;4.83;;;11.90;99.90;;;;;;4196923;28;20256;-68
2022/05/21 02:54:09;;;;;;;6.27;5.43;;;11.80;99.90;;;;;;4196948;28;20779;-69
2022/05/21 02:56:13;;;;;;;5.73;4.80;;;11.80;99.90;;;;;;4196426;28;20267;-68
2022/05/21 02:58:15;;;;;;;6.70;5.10;;;11.70;99.90;;;;;;4196835;28;20179;-68
2022/05/21 03:00:21;;;;;;;6.00;5.10;;;11.70;99.90;;;;;;4196849;28;20175;-68
2022/05/21 03:02:23;;;;;;;7.13;4.53;;;11.70;99.90;;;;;;4197031;28;20188;-68
2022/05/21 03:04:23;;;;;;;7.27;5.13;;;11.70;99.90;;;;;;4195299;28;20623;-68
2022/05/21 03:06:24;;;;;;;8.93;4.57;;;11.60;99.90;;;;;;4196197;28;20183;-68
2022/05/21 03:10:43;;;;;;;8.00;4.47;;;11.60;99.90;;;;;;4196651;28;20174;-68
2022/05/21 03:12:44;;;;;;;7.50;5.37;;;11.60;99.90;;;;;;4196731;28;20290;-68
2022/05/21 03:14:44;;;;;;;6.70;5.40;;;11.70;99.90;;;;;;4196262;28;20211;-68
2022/05/21 03:16:45;;;;;;;9.10;6.60;;;11.70;99.90;;;;;;4195618;28;20258;-68
2022/05/21 03:18:45;;;;;;;8.83;5.63;;;11.70;99.90;;;;;;4196367;28;20207;-68
2022/05/21 03:20:46;;;;;;;9.57;5.37;;;11.80;99.90;;;;;;4196332;28;20191;-68
2022/05/21 03:22:48;;;;;;;9.00;5.53;;;11.70;99.90;;;;;;4196667;28;20563;-67
2022/05/21 03:24:48;;;;;;;8.47;5.83;;;11.70;99.90;;;;;;4196502;28;20179;-68
2022/05/21 03:26:49;;;;;;;10.37;5.67;;;11.70;99.90;;;;;;4195941;28;20188;-68
2022/05/21 03:28:49;;;;;;;7.13;6.17;;;11.70;99.90;;;;;;4195992;28;20187;-68
2022/05/21 03:30:50;;;;;;;10.07;6.57;;;11.80;99.90;;;;;;4196335;28;20556;-69
2022/05/21 03:32:51;;;;;;;10.53;7.93;;;11.80;99.90;;;;;;4196513;28;20199;-68
2022/05/21 03:34:51;;;;;;;11.60;6.63;;;11.80;99.90;;;;;;4196221;28;20697;-68
2022/05/21 03:36:52;;;;;;;9.33;7.33;;;11.70;99.90;;;;;;4195628;28;20179;-66
2022/05/21 03:38:52;;;;;;;9.80;6.63;;;11.80;99.90;;;;;;4196297;28;20183;-67
2022/05/21 03:40:53;;;;;;;9.83;7.20;;;11.80;99.90;;;;;;4196110;28;20180;-68
2022/05/21 03:42:54;;;;;;;9.97;6.70;;;11.70;99.90;;;;;;4196356;28;20278;-68
2022/05/21 03:44:54;;;;;;;7.80;5.97;;;11.80;99.90;;;;;;4196075;28;20187;-68
2022/05/21 03:46:57;;;;;;;9.20;6.40;;;11.70;99.90;;;;;;4195395;28;20916;-67
2022/05/21 03:48:58;;;;;;;7.77;6.27;;;11.70;99.90;;;;;;4196246;28;20184;-68
2022/05/21 03:50:58;;;;;;;10.97;6.83;;;11.70;99.90;;;;;;4196047;28;20714;-68
2022/05/21 03:53:00;;;;;;;11.50;6.43;;;11.80;99.90;;;;;;4196092;28;20686;-67
2022/05/21 03:55:01;;;;;;;8.90;6.27;;;11.80;99.90;;;;;;4195831;28;20310;-68
2022/05/21 03:57:02;;;;;;;8.77;5.70;;;11.70;99.90;;;;;;4195120;28;20179;-68
2022/05/21 03:59:03;;;;;;;7.30;6.50;;;11.70;99.90;;;;;;4195956;28;20176;-68
2022/05/21 04:01:03;;;;;;;8.97;6.30;;;11.70;99.90;;;;;;4196173;28;20175;-68
2022/05/21 04:03:04;;;;;;;8.50;6.17;;;11.60;99.90;;;;;;4195786;28;20184;-69
2022/05/21 04:05:08;;;;;;;8.67;6.43;;;11.60;99.90;;;;;;4195799;28;20180;-68
2022/05/21 04:07:09;;;;;;;8.90;8.00;;;11.60;99.90;;;;;;4195215;28;20559;-68
2022/05/21 04:09:10;;;;;;;10.10;6.50;;;11.50;99.90;;;;;;4195543;28;20178;-68
2022/05/21 04:11:10;;;;;;;8.73;6.77;;;11.50;99.90;;;;;;4195601;28;20183;-68
2022/05/21 04:13:11;;;;;;;8.77;7.23;;;11.40;99.90;;;;;;4195597;28;20176;-68
2022/05/21 04:15:12;;;;;;;9.80;6.60;;;11.40;99.90;;;;;;4195489;28;20583;-68
2022/05/21 04:17:16;;;;;;;10.40;7.13;;;11.40;99.90;;;;;;4193770;28;20241;-68
2022/05/21 04:19:16;;;;;;;10.50;7.50;;;11.30;99.90;;;;;;4194314;28;20195;-68
2022/05/21 04:21:17;;;;;;;7.40;5.83;;;11.30;99.90;;;;;;4195440;28;20225;-68
2022/05/21 04:23:17;;;;;;;6.87;6.10;;;11.30;99.90;;;;;;4195788;28;20183;-68
2022/05/21 04:25:19;;;;;;;7.33;5.57;;;11.30;99.90;;;;;;4195662;28;20212;-68
2022/05/21 04:27:19;;;;;;;9.33;6.23;;;11.30;99.90;;;;;;4195056;28;20190;-68
2022/05/21 04:29:20;;;;;;;7.60;6.03;;;11.40;99.90;;;;;;4195681;28;20180;-68
2022/05/21 04:31:20;;;;;;;10.67;7.70;;;11.30;99.90;;;;;;4195797;28;20211;-68
2022/05/21 04:33:21;;;;;;;10.17;6.77;;;11.30;99.90;;;;;;4195742;28;20236;-68
2022/05/21 04:35:23;;;;;;;20.43;6.90;;;11.30;99.90;;;;;;4195102;28;20320;-68
2022/05/21 04:37:23;;;;;;;8.50;7.17;;;11.30;99.90;;;;;;4195363;28;20180;-67
2022/05/21 04:39:24;;;;;;;8.63;6.40;;;11.30;99.90;;;;;;4195126;28;20174;-68
2022/05/21 04:41:25;;;;;;;10.57;7.83;;;11.30;99.90;;;;;;4194100;28;20223;-68
2022/05/21 04:43:26;;;;;;;10.27;7.87;;;11.40;99.90;;;;;;4195231;28;20646;-68
2022/05/21 04:45:26;;;;;;;8.10;7.30;;;11.40;99.90;;;;;;4194452;28;20175;-67
2022/05/21 04:47:27;;;;;;;7.77;6.53;;;11.40;99.90;;;;;;4194917;28;20698;-67
2022/05/21 04:49:27;;;;;;;8.07;6.80;;;11.30;99.90;;;;;;4195069;28;20187;-67
2022/05/21 04:51:28;;;;;;;7.70;6.60;;;11.40;99.90;;;;;;4195152;28;20195;-67
2022/05/21 04:53:29;;;;;;;7.53;6.57;;;11.40;99.90;;;;;;4194977;28;20180;-67
2022/05/21 04:55:29;;;;;;;7.23;6.43;;;11.30;99.90;;;;;;4194318;28;20877;-68
2022/05/21 04:57:30;;;;;;;7.47;6.27;;;11.40;99.90;;;;;;4194800;28;20260;-68
2022/05/21 04:59:30;;;;;;;8.17;6.20;;;11.40;99.90;;;;;;4195011;28;20256;-68
2022/05/21 05:01:31;;;;;;;6.63;5.93;;;11.30;99.90;;;;;;4195191;28;20309;-67
2022/05/21 05:03:32;;;;;;;8.80;6.43;;;11.30;99.90;;;;;;4194885;28;20541;-68
2022/05/21 05:05:32;;;;;;;7.53;6.30;;;11.30;99.90;;;;;;4193865;28;20241;-68
2022/05/21 05:07:34;;;;;;;6.73;6.03;;;11.30;99.90;;;;;;4194729;28;20684;-68
2022/05/21 05:09:42;;;;;;;8.07;6.40;;;11.30;99.90;;;;;;4194867;28;20545;-68
2022/05/21 05:11:43;;;;;;;8.97;6.40;;;11.30;99.90;;;;;;4194769;28;20212;-68
2022/05/21 05:13:43;;;;;;;7.60;6.33;;;11.30;99.90;;;;;;4194708;28;20187;-68
2022/05/21 05:15:46;;;;;;;7.87;6.97;;;11.40;99.90;;;;;;4194129;28;20211;-67
2022/05/21 05:17:46;;;;;;;6.60;5.90;;;11.30;99.90;;;;;;4194952;28;20176;-68
2022/05/21 05:19:47;;;;;;;8.20;6.83;;;11.40;99.90;;;;;;4194714;28;20183;-67
2022/05/21 05:21:48;;;;;;;7.33;6.27;;;11.40;99.90;;;;;;4194683;28;20215;-67
2022/05/21 05:23:48;;;;;;;8.90;6.67;;;11.20;99.90;;;;;;4194888;28;20182;-68
2022/05/21 05:25:49;;;;;;;7.97;6.07;;;11.20;99.90;;;;;;4194156;28;20340;-68
2022/05/21 05:27:50;;;;;;;7.90;6.53;;;11.20;99.90;;;;;;4194793;28;20203;-67
2022/05/21 05:29:50;;;;;;;8.30;6.70;;;11.20;99.90;;;;;;4194698;28;20175;-67
2022/05/21 05:31:51;;;;;;;8.27;6.30;;;11.10;99.90;;;;;;4195083;28;20242;-67
2022/05/21 05:33:51;;;;;;;7.57;6.00;;;11.00;99.90;;;;;;4194581;28;20184;-68
2022/05/21 05:35:52;;;;;;;6.87;5.70;;;11.10;99.90;;;;;;4193951;28;20572;-67
2022/05/21 05:37:53;;;;;;;6.30;5.60;;;11.20;99.90;;;;;;4194634;28;20170;-68
2022/05/21 05:39:56;;;;;;;6.67;5.97;;;11.20;99.90;;;;;;4194586;28;20187;-67
2022/05/21 05:41:57;;;;;;;5.77;5.03;;;11.20;99.90;;;;;;4194307;28;20192;-68
2022/05/21 05:43:58;;;;;;;5.00;4.53;;;11.30;99.90;;;;;;4194591;28;20261;-68
2022/05/21 05:45:59;;;;;;;5.90;4.43;;;11.40;99.90;;;;;;4194018;28;20179;-67
2022/05/21 05:47:59;;;;;;;5.57;4.70;;;11.50;99.90;;;;;;4194642;28;20180;-68
2022/05/21 05:50:00;;;;;;;5.60;4.57;;;11.50;99.90;;;;;;4194479;28;20237;-68
2022/05/21 05:52:01;;;;;;;5.60;3.70;;;11.50;99.90;;;;;;4194880;28;20824;-68
2022/05/21 05:54:01;;;;;;;4.77;4.10;;;11.60;99.90;;;;;;4197645;28;20191;-68
2022/05/21 05:56:02;;;;;;;3.60;3.30;;;11.60;99.90;;;;;;4196746;28;20713;-68
2022/05/21 06:00:23;;;;;;;5.00;3.80;;;11.70;99.90;;;;;;4197499;28;20170;-68
2022/05/21 06:04:46;;;;;;;3.73;3.20;;;11.80;99.90;;;;;;4197603;28;20552;-67
2022/05/21 06:06:48;;;;;;;3.73;2.93;;;11.90;99.90;;;;;;4196852;28;20179;-67
2022/05/21 06:08:49;;;;;;;4.80;2.80;;;11.90;99.90;;;;;;4197276;28;20822;-68
2022/05/21 06:10:51;;;;;;;3.53;2.33;;;11.90;99.90;;;;;;4197304;28;20191;-68
2022/05/21 06:12:52;;;;;;;4.67;2.30;;;11.90;99.90;;;;;;4197353;28;20195;-68
2022/05/21 06:14:53;;;;;;;2.50;2.10;;;12.00;99.90;;;;;;4197273;28;20232;-68
2022/05/21 06:16:54;;;;;;;4.10;2.10;;;12.00;99.90;;;;;;4196497;28;20172;-68
2022/05/21 06:18:55;;;;;;;2.17;1.87;;;12.00;99.90;;;;;;4196873;28;20592;-68
2022/05/21 06:20:58;;;;;;;4.93;2.30;;;12.10;99.90;;;;;;4196971;28;20219;-68
2022/05/21 06:22:59;;;;;;;2.30;2.10;;;12.10;99.90;;;;;;4196821;28;20195;-68
2022/05/21 06:25:00;;;;;;;3.20;2.17;;;12.10;99.90;;;;;;4196213;28;20179;-68
2022/05/21 06:27:01;;;;;;;1.77;1.60;;;12.30;99.90;;;;;;4196388;28;20215;-68
2022/05/21 06:29:01;;;;;;;2.47;1.87;;;12.30;99.90;;;;;;4196798;28;20180;-68
2022/05/21 06:31:02;;;;;;;2.10;1.90;;;12.30;99.90;;;;;;4196674;28;20179;-68
2022/05/21 06:33:17;;;;;;;1.80;1.67;;;12.40;99.80;;;;;;4196608;28;20702;-68
2022/05/21 06:35:18;;;;;;;2.33;1.80;;;12.40;99.90;;;;;;4196417;28;20195;-68
2022/05/21 06:37:18;;;;;;;2.10;1.53;;;12.30;99.80;;;;;;4196335;28;20195;-68
2022/05/21 06:39:19;;;;;;;3.30;1.70;;;12.40;98.60;;;;;;4196700;28;20172;-68
2022/05/21 06:41:19;;;;;;;2.53;1.20;;;12.40;98.20;;;;;;4196283;28;20176;-68
2022/05/21 06:43:21;;;;;;;3.63;1.43;;;12.50;94.20;;;;;;4196522;28;20219;-68
2022/05/21 06:45:21;;;;;;;1.67;1.20;;;12.60;95.20;;;;;;4195835;28;20564;-67
2022/05/21 06:47:22;;;;;;;3.50;1.20;;;12.60;96.80;;;;;;4196534;28;20263;-67
2022/05/21 06:49:26;;;;;;;3.27;1.40;;;12.70;95.20;;;;;;4196480;28;20180;-68
2022/05/21 06:51:26;;;;;;;1.10;1.00;;;12.70;96.00;;;;;;4196226;28;20210;-68
2022/05/21 06:53:27;;;;;;;1.50;1.00;;;12.60;94.00;;;;;;4196479;28;20187;-68
2022/05/21 06:55:28;;;;;;;1.40;1.30;;;12.70;94.30;;;;;;4195508;28;20219;-67
2022/05/21 06:57:28;;;;;;;1.67;1.00;;;12.70;92.60;;;;;;4196353;28;20182;-68
2022/05/21 06:59:29;;;;;;;1.63;1.10;;;12.70;92.10;;;;;;4196494;28;20587;-68
2022/05/21 07:01:29;;;;;;;2.77;1.20;;;12.80;86.30;;;;;;4196111;28;20199;-67
2022/05/21 07:03:30;;;;;;;1.37;1.20;;;12.80;86.80;;;;;;4195478;28;20242;-68
2022/05/21 07:07:49;;;;;;;0.90;0.90;;;12.90;81.80;;;;;;4196297;28;20210;-68
2022/05/21 07:09:50;;;;;;;1.30;1.20;;;13.00;77.40;;;;;;4196147;28;20180;-68
2022/05/21 07:11:51;;;;;;;1.70;1.10;;;13.10;81.60;;;;;;4196228;28;20210;-68
2022/05/21 07:13:51;;;;;;;1.20;1.10;;;13.10;80.60;;;;;;4195770;28;20429;-68
2022/05/21 07:15:54;;;;;;;2.30;1.37;;;13.20;81.30;;;;;;4195418;28;20207;-68
2022/05/21 07:18:00;;;;;;;1.30;1.07;;;13.30;80.60;;;;;;4196143;28;20233;-68
2022/05/21 07:20:10;;;;;;;1.90;1.10;;;13.40;76.80;;;;;;4195914;28;21044;-68
2022/05/21 07:22:11;;;;;;;0.87;0.87;;;13.30;75.10;;;;;;4195909;28;20269;-68
2022/05/21 07:24:11;;;;;;;1.10;0.90;;;13.30;78.80;;;;;;4195823;28;20672;-68
2022/05/21 07:26:13;;;;;;;0.80;0.70;;;13.40;76.50;;;;;;4195286;28;20195;-68
2022/05/21 07:28:14;;;;;;;1.00;0.80;;;13.60;79.50;;;;;;4196016;28;20186;-68
2022/05/21 07:30:14;;;;;;;0.80;0.80;;;13.70;71.70;;;;;;4195858;28;20184;-68
2022/05/21 07:32:21;;;;;;;1.37;0.87;;;13.90;76.10;;;;;;4195696;28;20292;-68
2022/05/21 07:34:22;;;;;;;0.80;0.80;;;14.00;73.90;;;;;;4195539;28;20156;-68
2022/05/21 07:36:23;;;;;;;2.50;1.00;;;13.70;64.20;;;;;;4195189;28;20225;-68
2022/05/21 07:38:23;;;;;;;1.00;0.80;;;13.70;66.70;;;;;;4195768;28;20647;-68
2022/05/21 07:40:24;;;;;;;0.80;0.80;;;13.70;64.40;;;;;;4195641;28;20180;-68
2022/05/21 07:42:26;;;;;;;0.80;0.80;;;13.80;67.20;;;;;;4195539;28;20275;-68
2022/05/21 07:44:27;;;;;;;1.07;0.90;;;13.80;66.80;;;;;;4195554;28;20184;-68
2022/05/21 07:46:27;;;;;;;0.90;0.80;;;13.90;65.80;;;;;;4194948;28;20522;-67
2022/05/21 07:48:28;;;;;;;1.13;1.00;;;13.90;64.90;;;;;;4195436;28;20180;-67
2022/05/21 07:50:29;;;;;;;1.17;0.87;;;14.00;63.90;;;;;;4195460;28;20191;-67
2022/05/21 07:52:30;;;;;;;1.17;1.00;;;14.10;63.20;;;;;;4195559;28;20207;-68
2022/05/21 07:54:30;;;;;;;1.60;0.80;;;14.10;65.00;;;;;;4195288;28;20548;-68
2022/05/21 07:56:32;;;;;;;1.87;0.80;;;14.10;62.30;;;;;;4194618;28;20191;-68
2022/05/21 07:58:32;;;;;;;0.70;0.70;;;14.20;67.60;;;;;;4195392;28;20179;-68
2022/05/21 08:00:33;;;;;;;0.70;0.70;;;14.40;65.00;;;;;;4195292;28;20172;-68
2022/05/21 08:02:33;;;;;;;0.93;0.70;;;14.70;66.40;;;;;;4195377;28;20192;-68
2022/05/21 08:04:35;;;;;;;1.10;0.87;;;14.60;64.90;;;;;;4195536;28;20261;-68
2022/05/21 08:06:36;;;;;;;0.60;0.60;;;14.80;63.30;;;;;;4194828;28;20596;-67
2022/05/21 08:08:36;;;;;;;1.57;0.90;;;15.00;67.90;;;;;;4195391;28;20186;-67
2022/05/21 08:10:40;;;;;;;2.27;0.80;;;14.90;64.20;;;;;;4195470;28;20245;-67
2022/05/21 08:12:40;;;;;;;1.03;0.80;;;14.80;62.80;;;;;;4195263;28;20207;-68
2022/05/21 08:14:43;;;;;;;0.80;0.80;;;14.90;63.00;;;;;;4195074;28;20269;-67
2022/05/21 08:16:43;;;;;;;1.83;0.70;;;15.00;64.70;;;;;;4194624;28;20168;-67
2022/05/21 08:18:44;;;;;;;1.20;0.77;;;15.10;64.50;;;;;;4194497;28;20195;-68
2022/05/21 08:20:44;;;;;;;1.13;0.90;;;15.00;62.50;;;;;;4194962;28;20195;-67
2022/05/21 08:27:23;;;;;;;1.00;0.80;;;15.30;63.30;;;;;;4195197;28;20171;-67
2022/05/21 08:29:26;;;;;;;1.73;1.00;;;15.40;65.60;;;;;;4194804;28;20179;-67
2022/05/21 08:31:27;;;;;;;0.87;0.87;;;15.40;60.30;;;;;;4194862;28;20210;-67
2022/05/21 08:33:28;;;;;;;1.10;1.00;;;15.30;60.30;;;;;;4194845;28;20192;-68
2022/05/21 08:35:28;;;;;;;1.00;0.90;;;15.40;60.80;;;;;;4194323;28;20209;-67
2022/05/21 08:37:30;;;;;;;3.20;0.87;;;15.70;68.10;;;;;;4193700;28;20203;-67
2022/05/21 08:39:30;;;;;;;1.10;1.00;;;15.90;65.80;;;;;;4195065;28;20250;-67
2022/05/21 08:41:33;;;;;;;1.00;1.00;;;15.90;60.80;;;;;;4194949;28;20207;-68
2022/05/21 08:43:40;;;;;;;1.70;1.00;;;15.80;61.20;;;;;;4195028;28;20544;-67
2022/05/21 08:46:18;;;;;;;0.80;0.80;;;15.90;59.80;;;;;;4194156;28;20175;-68
2022/05/21 08:48:20;;;;;;;0.90;0.90;;;16.10;59.10;;;;;;4194843;28;20182;-68
2022/05/21 08:50:23;;;;;;;0.90;0.90;;;16.30;59.90;;;;;;4194878;28;20590;-67
2022/05/21 08:52:28;;;;;;;1.00;0.93;;;16.40;58.40;;;;;;4195065;28;20194;-67
2022/05/21 08:54:36;;;;;;;0.87;0.77;;;16.20;58.00;;;;;;4194921;28;20187;-68
2022/05/21 08:56:37;;;;;;;44.20;4.10;;;16.20;58.00;;;;;;4194427;28;20278;-67
2022/05/21 08:58:42;;;;;;;1.40;1.03;;;16.20;59.80;;;;;;4194723;28;20201;-67
2022/05/21 09:00:45;;;;;;;1.10;0.97;;;16.20;58.60;;;;;;4194661;28;20254;-67
2022/05/21 09:02:46;;;;;;;0.80;0.80;;;16.20;58.70;;;;;;4194731;28;20275;-67
2022/05/21 09:04:47;;;;;;;1.30;0.97;;;16.20;58.20;;;;;;4195141;28;20184;-67
2022/05/21 09:07:02;;;;;;;1.03;1.00;;;16.20;59.20;;;;;;4194009;28;20183;-67
2022/05/21 09:09:31;;;;;;;1.53;0.90;;;16.20;58.50;;;;;;4194834;28;20188;-68
2022/05/21 09:12:10;;;;;;;0.70;0.70;;;16.50;57.20;;;;;;4194839;28;20689;-68
2022/05/21 09:14:15;;;;;;;1.10;1.00;;;16.70;57.90;;;;;;4176955;28;20188;-67
2022/05/21 09:18:38;;;;;;;1.73;0.90;;;17.00;56.00;;;;;;4194790;28;20197;-67
2022/05/21 09:20:50;;;;;;;1.20;0.90;;;16.90;54.10;;;;;;4194196;28;20199;-67
2022/05/21 09:22:56;;;;;;;1.40;0.80;;;17.00;53.10;;;;;;4194548;28;20199;-67
2022/05/21 09:24:58;;;;;;;1.43;0.80;;;17.10;53.40;;;;;;4194484;28;20172;-67
2022/05/21 09:27:00;;;;;;;1.47;1.00;;;17.20;53.50;;;;;;4194501;28;20275;-67
2022/05/21 09:29:25;;;;;;;0.83;0.83;;;17.40;54.10;;;;;;4197765;28;20211;-68
2022/05/21 09:31:31;;;;;;;0.80;0.80;;;17.40;48.70;;;;;;4197950;28;20593;-67
2022/05/21 09:33:38;;;;;;;0.90;0.77;;;17.50;45.50;;;;;;4197784;28;20206;-68
2022/05/21 09:35:54;;;;;;;2.00;0.90;;;17.60;47.60;;;;;;4197122;28;20312;-67
2022/05/21 09:37:58;;;;;;;0.90;0.80;;;17.70;48.50;;;;;;4197795;28;20660;-67
2022/05/21 09:39:59;;;;;;;0.70;0.70;;;17.70;44.50;;;;;;4197666;28;20635;-67
2022/05/21 09:47:25;;;;;;;0.60;0.60;;;18.20;43.20;;;;;;4197795;28;20216;-67
2022/05/21 09:49:31;;;;;;;1.23;0.63;;;18.30;44.50;;;;;;4197501;28;20184;-68
2022/05/21 09:51:33;;;;;;;0.70;0.70;;;18.30;42.50;;;;;;4197472;28;20203;-68
2022/05/21 09:53:39;;;;;;;0.70;0.70;;;18.50;43.90;;;;;;4197490;28;20550;-68
2022/05/21 09:55:40;;;;;;;1.07;0.97;;;18.60;45.40;;;;;;4196783;28;20241;-68
2022/05/21 09:57:43;;;;;;;1.00;0.90;;;19.10;46.90;;;;;;4197410;28;20219;-68
2022/05/21 10:00:01;;;;;;;1.37;0.80;;;19.10;44.30;;;;;;4197569;28;20992;-67
2022/05/21 10:02:15;;;;;;;0.70;0.70;;;19.10;43.00;;;;;;4197281;28;20257;-68
2022/05/21 10:04:23;;;;;;;1.00;0.90;;;19.80;43.30;;;;;;4197373;28;20160;-68
2022/05/21 10:06:42;;;;;;;1.13;0.73;;;20.00;42.60;;;;;;4196714;28;20691;-68
2022/05/21 10:11:14;;;;;;;1.70;0.80;;;20.10;39.70;;;;;;4197430;28;20228;-68
2022/05/21 10:13:16;;;;;;;0.93;0.70;;;20.10;41.50;;;;;;4197380;28;20262;-67
2022/05/21 10:15:29;;;;;;;0.77;0.77;;;20.20;40.00;;;;;;4196658;28;20202;-68
2022/05/21 10:17:42;;;;;;;1.63;0.80;;;20.00;40.20;;;;;;4180514;28;20180;-66
2022/05/21 10:19:51;;;;;;;0.90;0.90;;;20.30;40.60;;;;;;4180571;28;20306;-68
2022/05/21 10:22:14;;;;;;;2.10;0.90;;;20.30;38.90;;;;;;4180569;28;20208;-68
2022/05/21 10:24:47;;;;;;;2.03;0.80;;;20.40;37.50;;;;;;4180753;28;20636;-68
2022/05/21 10:27:03;;;;;;;2.30;0.90;;;20.70;39.00;;;;;;4171059;28;20192;-68
2022/05/21 10:29:13;;;;;;;0.70;0.70;;;21.10;40.30;;;;;;4180410;28;20588;-68
2022/05/21 10:31:51;;;;;;;0.80;0.80;;;21.10;36.60;;;;;;4180471;28;20233;-66
2022/05/21 10:34:12;;;;;;;0.80;0.80;;;20.90;36.00;;;;;;4180229;28;20176;-68
2022/05/21 10:36:21;;;;;;;1.43;0.80;;;21.70;38.60;;;;;;4179695;28;20757;-68
2022/05/21 10:38:40;;;;;;;1.07;1.07;;;22.10;34.90;;;;;;4192991;28;20261;-68
2022/05/21 10:40:53;;;;;;;0.83;0.83;;;23.10;32.10;;;;;;4205069;28;20194;-69
2022/05/21 10:43:28;;;;;;;0.90;0.90;;;23.00;32.20;;;;;;4205931;28;20209;-68
2022/05/21 10:45:37;;;;;;;4.77;0.90;;;22.90;33.00;;;;;;4197614;28;20194;-71
2022/05/21 10:48:04;;;;;;;1.27;0.80;;;23.70;33.90;;;;;;4211991;28;20232;-69
2022/05/21 10:50:14;;;;;;;0.77;0.77;;;23.40;31.70;;;;;;4185077;28;20190;-68
2022/05/21 10:52:31;;;;;;;1.00;0.90;;;22.80;30.50;;;;;;4208639;28;20214;-69
2022/05/21 10:55:00;;;;;;;1.30;0.80;;;23.60;30.90;;;;;;4202770;28;20175;-69
2022/05/21 10:57:33;;;;;;;1.50;0.90;;;23.20;31.10;;;;;;4201766;28;20196;-68
2022/05/21 10:59:52;;;;;;;1.13;0.90;;;23.70;30.90;;;;;;4211113;28;20187;-68
2022/05/21 11:02:04;;;;;;;1.50;0.80;;;23.80;32.20;;;;;;4181588;28;20200;-69
2022/05/21 11:04:10;;;;;;;1.43;0.97;;;24.20;31.80;;;;;;4209837;28;20190;-72
2022/05/21 11:06:32;;;;;;;1.23;0.80;;;24.90;29.60;;;;;;4199112;28;20181;-70
2022/05/21 11:08:51;;;;;;;2.27;0.90;;;24.40;30.20;;;;;;4205802;28;20171;-69
2022/05/21 11:10:55;;;;;;;1.27;0.77;;;24.20;30.20;;;;;;4205296;28;20240;-68
2022/05/21 11:13:01;;;;;;;0.70;0.70;;;24.20;28.60;;;;;;4202446;28;20203;-69